Terminal Aerodrome Forecast
Issued by NWS Portland, OR

Current Version | Previous Version | Text Only | Print | Product List | Glossary On
Versions: 1 2 3 4 5 6 7 8 9 10 11 12 13 14 15 16
000
FTUS46 KPQR 030538
TAFAST
TAF
KAST 030538Z 0306/0406 27007KT 6SM BR SCT015 BKN035
      TEMPO 0306/0310 5SM -SHRA BKN015 OVC035
     FM031000 24005KT 6SM BR SCT015 BKN035
      TEMPO 0310/0314 BKN015 OVC035=

USA.gov is the U.S. government's official web portal to all federal, state and local government web resources and services.